Time;durP1;ratioP1;P1;durP2;ratioP2;P2;SDS_P1;SDS_P2;PMS_P1;PMS_P2;Temp;Humidity;BMP_temperature;BMP_pressure;BME280_temperature;BME280_humidity;BME280_pressure;Samples;Min_cycle;Max_cycle;Signal;HPM_P1;HPM_P2
2020/12/07 00:01:05;;;;;;;130.85;88.88;;;4.40;99.90;;;;;;5134785;27;20063;-64
2020/12/07 00:03:31;;;;;;;135.13;88.35;;;4.40;99.90;;;;;;5134647;27;20088;-63
2020/12/07 00:05:56;;;;;;;132.98;87.57;;;4.40;99.90;;;;;;5134379;27;20467;-63
2020/12/07 00:08:22;;;;;;;128.85;86.82;;;4.30;99.90;;;;;;5133434;27;20114;-65
2020/12/07 00:10:47;;;;;;;130.88;85.32;;;4.30;99.90;;;;;;5134142;27;20055;-65
2020/12/07 00:13:13;;;;;;;129.55;87.15;;;4.20;99.90;;;;;;5134215;27;20152;-64
2020/12/07 00:19:00;;;;;;;121.13;82.28;;;4.10;99.90;;;;;;5134349;27;20038;-66
2020/12/07 00:21:26;;;;;;;127.70;81.72;;;4.10;99.90;;;;;;5134409;27;20039;-64
2020/12/07 00:23:52;;;;;;;116.47;79.47;;;4.10;99.90;;;;;;5134007;27;20023;-64
2020/12/07 00:26:17;;;;;;;120.22;79.80;;;4.10;99.90;;;;;;5133983;27;20079;-65
2020/12/07 00:28:43;;;;;;;119.15;81.28;;;4.10;99.90;;;;;;5134233;27;20059;-65
2020/12/07 00:31:09;;;;;;;117.40;80.47;;;4.10;99.90;;;;;;5134156;27;20079;-64
2020/12/07 00:33:35;;;;;;;121.63;80.90;;;4.10;99.90;;;;;;5133949;27;20016;-66
2020/12/07 00:36:00;;;;;;;118.45;79.55;;;4.10;99.90;;;;;;5134138;27;20030;-65
2020/12/07 00:38:26;;;;;;;117.55;80.20;;;4.10;99.90;;;;;;5133970;27;20067;-62
2020/12/07 00:40:51;;;;;;;124.10;80.13;;;4.10;99.90;;;;;;5133801;27;20126;-65
2020/12/07 00:43:17;;;;;;;118.22;81.13;;;4.10;99.90;;;;;;5134057;27;20076;-65
2020/12/07 00:49:05;;;;;;;117.43;81.05;;;4.20;99.90;;;;;;5132069;27;20103;-64
2020/12/07 00:51:31;;;;;;;117.57;81.35;;;4.10;99.90;;;;;;5133703;27;20023;-65
2020/12/07 00:53:56;;;;;;;117.90;80.22;;;4.10;99.90;;;;;;5134030;27;20027;-63
2020/12/07 00:56:22;;;;;;;117.22;79.60;;;4.10;99.90;;;;;;5133975;27;20071;-62
2020/12/07 00:58:47;;;;;;;120.35;76.68;;;4.10;99.90;;;;;;5132840;27;20411;-63
2020/12/07 01:01:13;;;;;;;113.90;74.22;;;4.10;99.90;;;;;;5133733;27;20477;-64
2020/12/07 01:03:39;;;;;;;106.70;74.53;;;4.10;99.90;;;;;;5133755;27;20023;-66
2020/12/07 01:06:04;;;;;;;107.30;74.72;;;4.00;99.90;;;;;;5133411;27;20387;-63
2020/12/07 01:08:30;;;;;;;108.07;73.50;;;4.00;99.90;;;;;;5133769;27;20058;-64
2020/12/07 01:10:56;;;;;;;109.18;72.72;;;4.00;99.90;;;;;;5133636;27;20114;-62
2020/12/07 01:13:22;;;;;;;114.00;73.82;;;3.90;99.90;;;;;;5133707;27;20439;-64
2020/12/07 01:19:10;;;;;;;101.57;67.93;;;3.90;99.90;;;;;;5133352;28;20079;-66
2020/12/07 01:21:36;;;;;;;99.55;64.45;;;3.80;99.90;;;;;;5133318;27;20035;-63
2020/12/07 01:24:03;;;;;;;98.15;65.22;;;3.80;99.90;;;;;;5133630;27;20152;-66
2020/12/07 01:26:30;;;;;;;99.55;64.32;;;3.80;99.90;;;;;;5133709;27;20030;-65
2020/12/07 01:35:04;;;;;;;88.18;53.45;;;3.80;99.90;;;;;;5133129;28;20026;-64
2020/12/07 01:37:30;;;;;;;96.25;54.40;;;3.90;99.90;;;;;;5133244;27;20027;-64
2020/12/07 01:39:56;;;;;;;90.18;52.85;;;3.90;99.90;;;;;;5133082;27;20055;-63
2020/12/07 01:42:22;;;;;;;82.43;52.08;;;4.00;99.90;;;;;;5133464;27;20121;-67
2020/12/07 01:44:48;;;;;;;83.57;50.53;;;4.00;99.90;;;;;;5133402;27;20416;-64
2020/12/07 01:47:27;;;;;;;83.75;50.78;;;4.00;99.90;;;;;;5133103;27;20098;-65
2020/12/07 01:49:53;;;;;;;85.82;52.40;;;4.00;99.90;;;;;;5133006;27;20126;-65
2020/12/07 01:52:20;;;;;;;80.63;50.95;;;4.10;99.90;;;;;;5133391;27;20145;-64
2020/12/07 01:54:48;;;;;;;80.32;49.53;;;4.10;99.90;;;;;;5133335;27;20046;-63
2020/12/07 01:57:14;;;;;;;77.32;48.22;;;4.10;99.90;;;;;;5133082;27;20027;-62
2020/12/07 01:59:40;;;;;;;76.90;49.05;;;4.20;99.90;;;;;;5133008;27;20034;-64
2020/12/07 02:02:06;;;;;;;75.07;48.50;;;4.20;99.90;;;;;;5132829;27;20182;-65
2020/12/07 02:04:32;;;;;;;72.53;47.33;;;4.20;99.90;;;;;;5133003;27;20368;-62
2020/12/07 02:06:58;;;;;;;68.72;45.97;;;4.20;99.90;;;;;;5132916;27;20110;-63
2020/12/07 02:09:30;;;;;;;67.50;45.60;;;4.20;99.90;;;;;;5132953;27;20030;-64
2020/12/07 02:11:56;;;;;;;64.93;45.45;;;4.20;99.90;;;;;;5136345;27;20019;-65
2020/12/07 02:14:22;;;;;;;63.38;43.90;;;4.30;99.90;;;;;;5136732;27;20099;-64
2020/12/07 02:16:47;;;;;;;62.13;43.80;;;4.30;99.90;;;;;;5136844;27;20488;-67
2020/12/07 02:19:13;;;;;;;60.92;42.97;;;4.30;99.90;;;;;;5136812;27;20024;-64
2020/12/07 02:21:40;;;;;;;56.20;41.42;;;4.30;99.90;;;;;;5136429;27;20088;-62
2020/12/07 02:24:05;;;;;;;57.55;39.80;;;4.30;99.90;;;;;;5136499;27;20019;-63
2020/12/07 02:26:31;;;;;;;60.40;41.92;;;4.30;99.90;;;;;;5136489;27;20030;-64
2020/12/07 02:28:57;;;;;;;55.53;39.47;;;4.30;99.90;;;;;;5136437;27;20027;-64
2020/12/07 02:34:44;;;;;;;52.08;38.33;;;4.30;99.90;;;;;;5136936;27;20026;-64
2020/12/07 02:37:10;;;;;;;50.88;37.08;;;4.30;99.90;;;;;;5136636;27;20023;-64
2020/12/07 02:39:37;;;;;;;52.42;37.28;;;4.30;99.90;;;;;;5136125;27;20076;-63
2020/12/07 02:42:03;;;;;;;52.67;38.45;;;4.40;99.90;;;;;;5136334;27;20091;-65
2020/12/07 02:44:29;;;;;;;49.63;37.25;;;4.40;99.90;;;;;;5136074;27;20019;-65
2020/12/07 02:46:57;;;;;;;52.60;37.97;;;4.40;99.90;;;;;;5136110;27;20027;-63
2020/12/07 02:49:23;;;;;;;53.42;39.58;;;4.40;99.90;;;;;;5135941;27;20055;-64
2020/12/07 02:51:49;;;;;;;52.72;39.08;;;4.50;99.90;;;;;;5135945;27;20160;-63
2020/12/07 02:54:15;;;;;;;54.53;38.47;;;4.50;99.90;;;;;;5136243;27;20067;-64
2020/12/07 02:56:41;;;;;;;56.88;40.20;;;4.60;99.90;;;;;;5136063;27;20105;-64
2020/12/07 02:59:06;;;;;;;54.78;37.75;;;4.50;99.90;;;;;;5136223;27;20031;-64
2020/12/07 03:04:54;;;;;;;61.00;40.03;;;4.60;99.90;;;;;;5136139;27;20042;-66
2020/12/07 03:07:19;;;;;;;68.38;42.03;;;4.60;99.90;;;;;;5135787;27;20024;-66
2020/12/07 03:09:45;;;;;;;69.28;41.90;;;4.60;99.90;;;;;;5136019;27;20107;-64
2020/12/07 03:12:11;;;;;;;74.35;43.47;;;4.70;99.90;;;;;;5135902;27;20065;-66
2020/12/07 03:14:37;;;;;;;72.65;42.22;;;4.70;99.90;;;;;;5135793;27;20084;-62
2020/12/07 03:17:03;;;;;;;73.03;44.03;;;4.70;99.90;;;;;;5135773;27;20421;-64
2020/12/07 03:19:29;;;;;;;67.00;42.05;;;4.70;99.90;;;;;;5135546;27;20479;-63
2020/12/07 03:21:55;;;;;;;66.38;42.63;;;4.70;99.90;;;;;;5134910;27;20042;-63
2020/12/07 03:24:20;;;;;;;66.15;39.83;;;4.70;99.90;;;;;;5135433;27;20019;-64
2020/12/07 03:26:46;;;;;;;68.78;41.67;;;4.70;99.90;;;;;;5135647;27;20027;-63
2020/12/07 03:29:12;;;;;;;65.93;42.70;;;4.70;99.90;;;;;;5135552;27;20392;-65
2020/12/07 03:34:59;;;;;;;64.43;40.80;;;4.70;99.90;;;;;;5135143;27;20080;-65
2020/12/07 03:37:25;;;;;;;65.18;41.97;;;4.70;99.90;;;;;;5135409;27;20023;-66
2020/12/07 03:39:51;;;;;;;64.22;41.20;;;4.60;99.90;;;;;;5135302;27;20023;-64
2020/12/07 03:42:16;;;;;;;61.60;40.03;;;4.60;99.90;;;;;;5135173;27;20367;-65
2020/12/07 03:44:42;;;;;;;61.17;40.75;;;4.60;99.90;;;;;;5135289;27;20030;-64
2020/12/07 03:50:29;;;;;;;60.67;38.85;;;4.60;99.90;;;;;;5123777;27;20147;-59
2020/12/07 03:52:55;;;;;;;59.35;39.85;;;4.60;99.90;;;;;;5135052;27;20495;-64
2020/12/07 03:55:20;;;;;;;55.00;38.92;;;4.60;99.90;;;;;;5134882;27;20428;-65
2020/12/07 03:57:46;;;;;;;55.40;38.00;;;4.60;99.90;;;;;;5134622;27;20382;-63
2020/12/07 04:00:12;;;;;;;56.08;38.53;;;4.60;99.90;;;;;;5134372;27;20080;-66
2020/12/07 04:02:38;;;;;;;56.35;38.08;;;4.60;99.90;;;;;;5134558;27;20072;-62
2020/12/07 04:05:16;;;;;;;55.00;36.97;;;4.60;99.90;;;;;;5134787;27;20052;-64
2020/12/07 04:07:42;;;;;;;54.08;37.92;;;4.60;99.90;;;;;;5134749;27;20042;-63
2020/12/07 04:10:07;;;;;;;51.45;36.13;;;4.60;99.90;;;;;;5134773;27;20024;-64
2020/12/07 04:12:33;;;;;;;56.10;38.40;;;4.60;99.90;;;;;;5134466;27;20031;-64
2020/12/07 04:14:59;;;;;;;49.80;36.92;;;4.60;99.90;;;;;;5134297;27;20030;-64
2020/12/07 04:17:24;;;;;;;51.67;35.53;;;4.60;99.90;;;;;;5134746;27;20076;-63
2020/12/07 04:19:50;;;;;;;51.60;35.53;;;4.60;99.90;;;;;;5134784;27;20023;-63
2020/12/07 04:22:15;;;;;;;51.53;35.80;;;4.60;99.90;;;;;;5134461;27;20577;-63
2020/12/07 04:24:41;;;;;;;48.03;34.97;;;4.50;99.90;;;;;;5132936;27;20171;-65
2020/12/07 04:27:07;;;;;;;52.08;36.70;;;4.60;99.90;;;;;;5134285;27;20023;-61
2020/12/07 04:29:32;;;;;;;48.70;34.45;;;4.60;99.90;;;;;;5134390;27;20054;-65
2020/12/07 04:35:20;;;;;;;55.83;37.00;;;4.50;99.90;;;;;;5133206;27;20394;-67
2020/12/07 04:37:46;;;;;;;55.53;37.50;;;4.60;99.90;;;;;;5133977;27;20015;-65
2020/12/07 04:40:11;;;;;;;54.63;37.45;;;4.60;99.90;;;;;;5134072;27;20045;-65
2020/12/07 04:42:40;;;;;;;51.45;36.35;;;4.50;99.90;;;;;;5134212;27;20030;-62
2020/12/07 04:45:06;;;;;;;58.72;39.47;;;4.50;99.90;;;;;;5133830;27;20531;-64
2020/12/07 04:50:55;;;;;;;56.67;37.88;;;4.50;99.90;;;;;;5129766;27;20096;-62
2020/12/07 04:53:21;;;;;;;56.53;38.05;;;4.50;99.90;;;;;;5133774;27;20046;-66
2020/12/07 04:55:48;;;;;;;62.13;39.22;;;4.50;99.90;;;;;;5133925;27;20536;-65
2020/12/07 04:58:15;;;;;;;60.28;37.85;;;4.50;99.90;;;;;;5133547;27;20383;-64
2020/12/07 05:00:41;;;;;;;60.88;39.53;;;4.60;99.90;;;;;;5133384;27;20487;-64
2020/12/07 05:03:07;;;;;;;59.97;39.22;;;4.60;99.90;;;;;;5133876;27;20029;-64
2020/12/07 05:05:35;;;;;;;60.90;39.30;;;4.60;99.90;;;;;;5133451;27;20113;-65
2020/12/07 05:08:01;;;;;;;58.63;37.55;;;4.60;99.90;;;;;;5133534;27;20031;-66
2020/12/07 05:10:35;;;;;;;58.17;38.83;;;4.60;99.90;;;;;;5133408;27;20027;-66
2020/12/07 05:13:14;;;;;;;56.20;37.58;;;4.60;99.90;;;;;;5133853;27;20062;-66
2020/12/07 05:15:41;;;;;;;59.60;38.67;;;4.60;99.90;;;;;;5133388;27;20420;-65
2020/12/07 05:18:07;;;;;;;59.25;39.20;;;4.60;99.90;;;;;;5133430;27;20599;-63
2020/12/07 05:20:33;;;;;;;53.75;37.13;;;4.60;99.90;;;;;;5133703;27;20402;-65
2020/12/07 05:23:02;;;;;;;58.20;38.50;;;4.70;99.90;;;;;;5133696;27;20059;-64
2020/12/07 05:25:28;;;;;;;56.13;36.53;;;4.70;99.90;;;;;;5133339;27;20020;-64
2020/12/07 05:27:56;;;;;;;56.13;38.53;;;4.70;99.90;;;;;;5133705;27;20023;-65
2020/12/07 05:32:48;;;;;;;66.38;41.35;;;4.70;99.90;;;;;;5133546;27;20050;-65
2020/12/07 05:35:14;;;;;;;74.47;46.10;;;4.70;99.90;;;;;;5133566;27;20025;-64
2020/12/07 05:37:40;;;;;;;87.60;49.97;;;4.70;99.90;;;;;;5133433;27;20024;-64
2020/12/07 05:40:09;;;;;;;95.55;51.95;;;4.70;99.90;;;;;;5133572;27;20468;-65
2020/12/07 05:42:34;;;;;;;89.38;51.50;;;4.80;99.90;;;;;;5133470;27;20035;-65
2020/12/07 05:45:02;;;;;;;86.45;50.08;;;4.80;99.90;;;;;;5133757;27;20024;-63
2020/12/07 05:50:51;;;;;;;69.10;43.83;;;4.80;99.90;;;;;;5137036;27;20115;-64
2020/12/07 05:53:16;;;;;;;66.60;43.10;;;4.80;99.90;;;;;;5137042;27;20034;-63
2020/12/07 05:55:42;;;;;;;57.63;40.03;;;4.80;99.90;;;;;;5137280;27;20035;-64
2020/12/07 05:58:11;;;;;;;56.08;38.83;;;4.80;99.90;;;;;;5137297;27;20455;-63
2020/12/07 06:00:37;;;;;;;56.92;39.45;;;4.80;99.90;;;;;;5136981;27;20436;-63
2020/12/07 06:03:05;;;;;;;51.30;35.88;;;4.90;99.90;;;;;;5137131;27;20023;-64
2020/12/07 06:05:31;;;;;;;49.40;36.00;;;4.80;99.90;;;;;;5136829;27;20030;-64
2020/12/07 06:08:02;;;;;;;53.47;37.35;;;4.80;99.90;;;;;;5136760;27;20434;-64
2020/12/07 06:10:33;;;;;;;54.30;39.30;;;4.90;99.90;;;;;;5136805;27;20535;-63
2020/12/07 06:13:02;;;;;;;55.70;38.80;;;4.80;99.90;;;;;;5136818;27;20023;-64
2020/12/07 06:15:30;;;;;;;56.75;38.05;;;4.80;99.90;;;;;;5136777;27;20066;-65
2020/12/07 06:21:19;;;;;;;58.25;40.03;;;4.90;99.90;;;;;;5136439;27;20096;-64
2020/12/07 06:23:47;;;;;;;60.22;41.80;;;4.90;99.90;;;;;;5136799;27;20026;-65
2020/12/07 06:26:16;;;;;;;61.30;41.47;;;4.80;99.90;;;;;;5136411;27;20110;-63
2020/12/07 06:28:44;;;;;;;59.35;41.00;;;4.90;99.90;;;;;;5136357;27;20551;-64
2020/12/07 06:31:12;;;;;;;58.75;39.88;;;4.90;99.90;;;;;;5136517;27;20023;-65
2020/12/07 06:33:50;;;;;;;60.90;41.72;;;4.90;99.90;;;;;;5136580;27;20080;-63
2020/12/07 06:36:36;;;;;;;61.40;42.38;;;4.90;99.90;;;;;;5136600;27;20466;-65
2020/12/07 06:39:08;;;;;;;60.30;41.75;;;4.90;99.90;;;;;;5136265;27;20019;-63
2020/12/07 06:41:34;;;;;;;61.72;42.08;;;4.90;99.90;;;;;;5136279;27;20031;-64
2020/12/07 06:44:01;;;;;;;64.43;44.40;;;4.80;99.90;;;;;;5136294;27;20046;-64
2020/12/07 06:46:49;;;;;;;65.90;44.60;;;4.90;99.90;;;;;;5136209;27;20027;-65
2020/12/07 06:49:15;;;;;;;64.80;42.67;;;4.80;99.90;;;;;;5136037;27;20022;-62
2020/12/07 06:51:44;;;;;;;65.32;42.65;;;4.90;99.90;;;;;;5135768;27;20051;-66
2020/12/07 06:57:38;;;;;;;64.93;43.47;;;4.90;99.90;;;;;;5135005;27;20498;-66
2020/12/07 07:00:21;;;;;;;68.20;44.75;;;4.90;99.90;;;;;;5135962;27;20043;-66
2020/12/07 07:02:57;;;;;;;68.13;42.88;;;4.90;99.90;;;;;;5136087;27;20395;-65
2020/12/07 07:05:29;;;;;;;65.80;43.70;;;4.90;99.90;;;;;;5135970;27;20221;-65
2020/12/07 07:07:55;;;;;;;66.95;43.28;;;4.90;99.90;;;;;;5135719;27;20062;-65
2020/12/07 07:10:21;;;;;;;64.80;43.65;;;4.90;99.90;;;;;;5135909;27;20055;-64
2020/12/07 07:12:48;;;;;;;62.58;41.55;;;4.90;99.90;;;;;;5135842;27;20027;-64
2020/12/07 07:15:14;;;;;;;68.22;44.25;;;4.90;99.90;;;;;;5135337;27;20478;-66
2020/12/07 07:17:42;;;;;;;67.65;43.45;;;5.00;99.90;;;;;;5135615;27;20348;-64
2020/12/07 07:20:15;;;;;;;82.60;45.38;;;5.00;99.90;;;;;;5135236;27;20106;-67
2020/12/07 07:22:44;;;;;;;94.07;46.75;;;4.80;99.90;;;;;;5135497;27;20031;-64
2020/12/07 07:30:30;;;;;;;95.70;46.05;;;3.20;99.90;;;;;;5135325;27;20026;-64
2020/12/07 07:32:57;;;;;;;75.55;44.83;;;2.80;99.90;;;;;;5135269;27;20023;-64
2020/12/07 07:35:26;;;;;;;88.95;47.13;;;2.70;99.90;;;;;;5134588;27;20027;-68
2020/12/07 07:37:52;;;;;;;88.43;46.72;;;2.90;99.90;;;;;;5133512;27;20027;-67
2020/12/07 07:40:22;;;;;;;95.22;51.95;;;2.70;99.90;;;;;;5134670;27;20024;-67
2020/12/07 07:43:00;;;;;;;89.38;49.67;;;2.70;99.90;;;;;;5135100;27;20063;-69
2020/12/07 07:45:32;;;;;;;97.00;49.63;;;2.70;99.90;;;;;;5135112;27;20034;-69
2020/12/07 07:48:19;;;;;;;88.93;49.15;;;2.60;99.90;;;;;;5134961;27;20035;-69
2020/12/07 07:51:03;;;;;;;83.88;47.63;;;2.60;99.90;;;;;;5134399;27;20047;-68
2020/12/07 07:54:07;;;;;;;;;;;2.70;99.90;;;;;;5135412;27;20027;-68
2020/12/07 08:15:54;;;;;;;109.55;51.17;;;2.50;99.90;;;;;;5134133;27;20043;-69
2020/12/07 08:21:42;;;;;;;120.28;51.80;;;2.40;99.90;;;;;;5133661;27;20126;-68
2020/12/07 08:24:09;;;;;;;111.95;50.35;;;2.30;99.90;;;;;;5134246;27;20094;-67
2020/12/07 08:26:43;;;;;;;137.00;54.97;;;2.40;99.90;;;;;;5133860;27;20477;-69
2020/12/07 08:29:10;;;;;;;101.88;51.45;;;2.40;99.90;;;;;;5132932;27;20094;-67
2020/12/07 08:31:36;;;;;;;127.35;53.63;;;2.40;99.90;;;;;;5133750;27;20114;-69
2020/12/07 08:34:12;;;;;;;139.40;53.30;;;2.40;99.90;;;;;;5132739;27;20030;-66
2020/12/07 08:36:42;;;;;;;139.70;53.03;;;2.40;99.90;;;;;;5133377;27;20019;-65
2020/12/07 08:39:08;;;;;;;194.18;57.58;;;2.40;99.90;;;;;;5133329;27;20023;-64
2020/12/07 08:41:35;;;;;;;155.57;52.90;;;2.40;99.90;;;;;;5133729;27;20037;-67
2020/12/07 08:44:08;;;;;;;134.38;50.65;;;2.40;99.90;;;;;;5133699;27;20387;-68
2020/12/07 08:46:36;;;;;;;121.93;50.10;;;2.50;99.90;;;;;;5133850;27;20034;-68
2020/12/07 08:52:24;;;;;;;127.65;51.53;;;2.40;99.90;;;;;;5123061;27;20062;-72
2020/12/07 08:54:50;;;;;;;114.63;53.78;;;2.60;99.90;;;;;;5133950;27;20027;-67
2020/12/07 08:57:15;;;;;;;150.30;53.38;;;2.70;99.90;;;;;;5133717;27;20046;-67
2020/12/07 08:59:41;;;;;;;149.45;51.95;;;2.60;99.90;;;;;;5133590;27;20051;-67
2020/12/07 09:02:07;;;;;;;137.80;56.65;;;2.60;99.90;;;;;;5133638;27;20084;-68
2020/12/07 09:04:33;;;;;;;116.10;56.38;;;2.60;99.90;;;;;;5133637;27;20099;-68
2020/12/07 09:06:58;;;;;;;97.13;52.72;;;2.70;99.90;;;;;;5133037;27;20031;-68
2020/12/07 09:09:24;;;;;;;118.47;52.47;;;2.80;99.90;;;;;;5132936;27;20016;-68
2020/12/07 09:11:49;;;;;;;137.70;53.85;;;2.80;99.90;;;;;;5133685;27;20068;-66
2020/12/07 09:14:15;;;;;;;183.57;53.22;;;2.90;99.90;;;;;;5132900;27;20023;-67
2020/12/07 09:16:41;;;;;;;144.38;55.67;;;2.80;99.90;;;;;;5133565;27;20019;-67
2020/12/07 09:22:28;;;;;;;114.75;48.05;;;2.70;99.90;;;;;;5137286;27;20042;-68
2020/12/07 09:24:53;;;;;;;95.10;46.05;;;2.70;99.90;;;;;;5137848;27;20023;-68
2020/12/07 09:27:19;;;;;;;98.57;52.17;;;2.70;99.90;;;;;;5137236;27;20023;-69
2020/12/07 09:29:46;;;;;;;113.40;52.72;;;2.80;99.90;;;;;;5137661;27;20474;-69
2020/12/07 09:32:12;;;;;;;98.93;51.25;;;2.90;99.90;;;;;;5137360;27;20092;-68
2020/12/07 09:34:38;;;;;;;101.50;51.13;;;3.00;99.90;;;;;;5137548;27;20035;-68
2020/12/07 09:37:04;;;;;;;71.72;47.67;;;3.20;99.90;;;;;;5136958;27;20015;-68
2020/12/07 09:39:30;;;;;;;113.32;50.05;;;3.30;99.90;;;;;;5137418;27;20029;-67
2020/12/07 09:41:57;;;;;;;141.88;47.95;;;3.10;99.90;;;;;;5137411;27;20402;-68
2020/12/07 09:44:24;;;;;;;132.75;48.33;;;3.00;99.90;;;;;;5137364;27;20046;-67
2020/12/07 09:46:52;;;;;;;138.68;50.95;;;3.00;99.90;;;;;;5137060;27;20023;-68
2020/12/07 09:52:39;;;;;;;94.70;46.95;;;2.80;99.90;;;;;;5134569;27;20106;-67
2020/12/07 09:55:06;;;;;;;78.43;44.70;;;3.00;99.90;;;;;;5137025;27;20106;-67
2020/12/07 09:57:35;;;;;;;89.47;46.58;;;3.30;99.90;;;;;;5136263;27;20374;-66
2020/12/07 10:00:00;;;;;;;98.70;45.83;;;3.20;99.90;;;;;;5136799;27;20058;-68
2020/12/07 10:02:26;;;;;;;129.63;46.53;;;3.10;99.90;;;;;;5136320;27;20045;-68
2020/12/07 10:04:52;;;;;;;101.50;47.58;;;3.20;99.90;;;;;;5136899;27;20449;-68
2020/12/07 10:07:18;;;;;;;95.93;45.97;;;3.30;99.90;;;;;;5136802;27;20035;-67
2020/12/07 10:09:44;;;;;;;109.72;44.83;;;3.20;99.90;;;;;;5136550;27;20023;-66
2020/12/07 10:12:10;;;;;;;100.30;46.05;;;3.20;99.90;;;;;;5136393;27;20024;-68
2020/12/07 10:14:36;;;;;;;119.63;44.08;;;3.20;99.90;;;;;;5136930;27;20076;-68
2020/12/07 10:17:02;;;;;;;111.22;44.28;;;3.30;99.90;;;;;;5136209;27;20110;-68
2020/12/07 10:22:49;;;;;;;82.07;43.65;;;3.30;99.90;;;;;;5136680;27;20050;-67
2020/12/07 10:25:15;;;;;;;82.78;41.10;;;3.30;99.90;;;;;;5136298;27;20023;-67
2020/12/07 10:27:41;;;;;;;105.07;43.05;;;3.30;99.90;;;;;;5136367;27;20023;-67
2020/12/07 10:30:06;;;;;;;68.72;41.38;;;3.30;99.90;;;;;;5136478;27;20027;-68
2020/12/07 10:32:32;;;;;;;76.63;38.80;;;3.30;99.90;;;;;;5136139;27;20026;-69
2020/12/07 10:34:57;;;;;;;95.50;38.67;;;3.40;99.90;;;;;;5136510;27;20023;-68
2020/12/07 10:37:23;;;;;;;194.80;43.53;;;3.40;99.90;;;;;;5136235;27;20041;-67
2020/12/07 10:39:49;;;;;;;73.82;39.22;;;3.00;99.90;;;;;;5136287;27;20023;-67
2020/12/07 10:42:15;;;;;;;155.98;41.30;;;3.40;99.90;;;;;;5135626;27;20035;-66
2020/12/07 10:44:40;;;;;;;103.00;41.88;;;3.20;99.90;;;;;;5136277;27;20023;-68
2020/12/07 10:47:06;;;;;;;84.45;42.60;;;3.10;99.90;;;;;;5135721;27;20031;-69
2020/12/07 10:52:53;;;;;;;88.53;41.65;;;3.10;99.90;;;;;;5132975;27;20399;-68
2020/12/07 10:55:19;;;;;;;102.22;42.72;;;3.20;99.90;;;;;;5135695;27;20035;-67
2020/12/07 10:57:44;;;;;;;83.47;40.70;;;3.20;99.90;;;;;;5135775;27;20068;-67
2020/12/07 11:00:10;;;;;;;73.10;38.92;;;3.40;99.90;;;;;;5135957;27;20031;-67
2020/12/07 11:02:36;;;;;;;78.25;36.90;;;3.40;99.90;;;;;;5135916;27;20443;-66
2020/12/07 11:05:02;;;;;;;68.85;37.72;;;3.50;99.90;;;;;;5135793;27;20169;-66
2020/12/07 11:07:29;;;;;;;74.97;36.22;;;3.50;99.90;;;;;;5135620;27;20435;-68
2020/12/07 11:09:55;;;;;;;97.30;37.15;;;3.30;99.90;;;;;;5135356;27;20370;-67
2020/12/07 11:12:23;;;;;;;78.53;34.78;;;3.20;99.90;;;;;;5135299;27;20023;-68
2020/12/07 11:14:48;;;;;;;55.22;34.25;;;3.30;99.90;;;;;;5135584;27;20051;-68
2020/12/07 11:17:14;;;;;;;107.72;36.33;;;3.20;99.90;;;;;;5135426;27;20115;-69
2020/12/07 11:23:02;;;;;;;63.88;35.60;;;3.40;99.90;;;;;;5135765;27;20414;-66
2020/12/07 11:25:27;;;;;;;59.67;35.22;;;3.40;99.90;;;;;;5135141;27;20019;-67
2020/12/07 11:27:53;;;;;;;61.47;35.00;;;3.40;99.90;;;;;;5135433;27;20056;-69
2020/12/07 11:30:18;;;;;;;73.78;35.38;;;3.50;99.90;;;;;;5133759;27;20095;-67
2020/12/07 11:32:44;;;;;;;64.88;35.65;;;3.50;99.90;;;;;;5135025;27;20536;-67
2020/12/07 11:38:46;;;;;;;80.60;37.28;;;3.40;99.90;;;;;;5134984;27;20459;-68
2020/12/07 11:44:07;;;;;;;64.70;36.70;;;3.50;99.90;;;;;;5134369;27;20091;-67
2020/12/07 11:46:43;;;;;;;72.70;35.78;;;3.50;99.90;;;;;;5134842;27;20450;-67
2020/12/07 11:49:08;;;;;;;75.50;36.47;;;3.60;99.90;;;;;;5134956;27;20068;-65
2020/12/07 11:51:34;;;;;;;138.00;72.50;;;3.60;99.90;;;;;;5134638;27;20115;-67
2020/12/07 11:54:00;;;;;;;72.85;40.33;;;3.70;99.90;;;;;;5134475;27;20043;-66
2020/12/07 11:56:31;;;;;;;65.07;34.85;;;3.60;99.90;;;;;;5135134;27;20046;-66
2020/12/07 11:58:57;;;;;;;69.00;36.13;;;3.50;99.90;;;;;;5135259;27;20027;-67
2020/12/07 12:01:23;;;;;;;73.15;36.75;;;3.50;99.90;;;;;;5134603;27;20074;-69
2020/12/07 12:03:49;;;;;;;66.40;36.90;;;3.40;99.90;;;;;;5134713;27;20422;-69
2020/12/07 12:06:26;;;;;;;77.55;43.25;;;3.60;99.90;;;;;;5134681;27;20078;-66
2020/12/07 12:08:53;;;;;;;106.18;39.00;;;3.80;99.90;;;;;;5134519;27;20023;-67
2020/12/07 12:11:19;;;;;;;73.85;40.20;;;3.60;99.90;;;;;;5134489;27;20027;-67
2020/12/07 12:13:45;;;;;;;90.38;39.15;;;3.70;99.90;;;;;;5134114;27;20523;-67
2020/12/07 12:16:15;;;;;;;95.75;40.67;;;3.60;99.90;;;;;;5133958;27;20053;-69
2020/12/07 12:18:41;;;;;;;73.03;38.55;;;3.50;99.90;;;;;;5133961;27;20367;-68
2020/12/07 12:21:07;;;;;;;75.45;39.17;;;3.60;99.90;;;;;;5133855;27;20038;-68
2020/12/07 12:23:32;;;;;;;85.85;40.90;;;3.70;99.90;;;;;;5133937;27;20031;-68
2020/12/07 12:26:03;;;;;;;70.88;39.05;;;3.60;99.90;;;;;;5133946;27;20523;-69
2020/12/07 12:28:28;;;;;;;71.95;38.67;;;3.70;99.90;;;;;;5133839;27;20156;-68
2020/12/07 12:30:54;;;;;;;76.22;39.92;;;3.80;99.90;;;;;;5133967;27;20152;-66
2020/12/07 12:33:20;;;;;;;75.53;40.33;;;3.70;99.90;;;;;;5133740;27;20052;-68
2020/12/07 12:35:46;;;;;;;78.78;42.45;;;3.80;99.90;;;;;;5133963;27;20481;-68
2020/12/07 12:38:12;;;;;;;79.32;40.97;;;3.80;99.90;;;;;;5134088;27;20432;-68
2020/12/07 12:40:38;;;;;;;72.07;39.42;;;3.80;99.90;;;;;;5133791;27;20052;-68
2020/12/07 12:43:04;;;;;;;72.18;40.47;;;3.80;99.90;;;;;;5133653;27;20036;-68
2020/12/07 12:45:29;;;;;;;83.03;42.08;;;4.00;99.90;;;;;;5133721;27;20028;-68
2020/12/07 12:47:55;;;;;;;71.03;39.50;;;3.90;99.90;;;;;;5133898;27;20030;-67
2020/12/07 12:53:42;;;;;;;61.15;28.75;;;3.80;99.90;;;;;;5125536;27;20053;-68
2020/12/07 12:56:09;;;;;;;57.90;29.98;;;3.80;99.90;;;;;;5132898;27;20031;-68
2020/12/07 12:58:36;;;;;;;52.88;28.20;;;3.80;99.90;;;;;;5133491;27;20015;-67
2020/12/07 13:01:03;;;;;;;48.63;27.48;;;3.80;99.90;;;;;;5133735;27;20110;-67
2020/12/07 13:03:29;;;;;;;49.33;26.02;;;3.90;99.90;;;;;;5133597;27;20031;-67
2020/12/07 13:05:54;;;;;;;46.42;23.42;;;3.90;99.90;;;;;;5133942;27;20019;-67
2020/12/07 13:08:20;;;;;;;40.83;20.05;;;4.00;99.90;;;;;;5133816;27;20475;-62
2020/12/07 13:10:48;;;;;;;31.20;17.38;;;4.50;99.90;;;;;;5133598;27;20027;-74
2020/12/07 13:13:14;;;;;;;31.98;19.60;;;10.10;99.90;;;;;;5133273;27;20038;-72
2020/12/07 13:15:48;;;;;;;29.35;18.67;;;12.90;99.90;;;;;;5133229;27;20027;-70
2020/12/07 13:18:14;;;;;;;54.00;29.95;;;13.90;99.90;;;;;;5133285;27;20125;-68
2020/12/07 13:24:16;;;;;;;49.25;24.98;;;7.80;99.90;;;;;;5133275;28;20095;-68
2020/12/07 13:27:07;;;;;;;44.88;25.10;;;6.00;99.90;;;;;;5133274;27;20087;-66
2020/12/07 13:29:33;;;;;;;46.85;25.73;;;5.20;99.90;;;;;;5133335;27;20027;-67
2020/12/07 13:31:59;;;;;;;46.50;26.48;;;5.20;99.90;;;;;;5133475;27;20023;-66
2020/12/07 13:34:24;;;;;;;45.75;25.08;;;5.10;99.90;;;;;;5133202;27;20516;-68
2020/12/07 13:36:50;;;;;;;46.83;24.33;;;5.10;99.90;;;;;;5133197;27;20019;-68
2020/12/07 13:39:16;;;;;;;44.63;25.42;;;4.80;99.90;;;;;;5133446;27;20088;-68
2020/12/07 13:41:46;;;;;;;46.05;24.85;;;4.70;99.90;;;;;;5133305;27;20547;-68
2020/12/07 13:44:12;;;;;;;47.40;26.80;;;4.60;99.90;;;;;;5133036;27;20471;-69
2020/12/07 13:46:37;;;;;;;48.47;27.10;;;4.50;99.90;;;;;;5133392;27;20035;-67
2020/12/07 13:49:03;;;;;;;49.83;28.60;;;4.50;99.90;;;;;;5133083;27;20099;-68
2020/12/07 13:51:30;;;;;;;85.00;48.53;;;4.60;99.90;;;;;;5133179;27;20435;-67
2020/12/07 13:53:56;;;;;;;80.05;40.83;;;4.50;99.90;;;;;;5132964;27;20051;-67
2020/12/07 13:56:22;;;;;;;92.68;46.70;;;4.60;99.90;;;;;;5132970;27;20030;-66
2020/12/07 13:58:47;;;;;;;64.18;33.38;;;4.70;99.90;;;;;;5133250;27;20035;-68
2020/12/07 14:01:13;;;;;;;58.90;32.42;;;4.60;99.90;;;;;;5133059;27;20023;-67
2020/12/07 14:03:47;;;;;;;90.22;44.40;;;4.50;99.90;;;;;;5132798;27;20051;-66
2020/12/07 14:09:36;;;;;;;57.72;31.17;;;4.40;99.90;;;;;;5136829;27;20026;-67
2020/12/07 14:12:02;;;;;;;57.22;32.25;;;4.60;99.90;;;;;;5136903;27;20050;-67
2020/12/07 14:14:28;;;;;;;75.28;40.53;;;4.50;99.90;;;;;;5136566;27;20062;-66
2020/12/07 14:17:01;;;;;;;74.95;41.20;;;4.30;99.90;;;;;;5136974;27;20023;-67
2020/12/07 14:31:09;;;;;;;;;;;4.30;99.90;;;;;;5033537;28;20457;-68
2020/12/07 14:41:47;;;;;;;55.20;27.45;;;3.90;99.90;;;;;;5032806;28;20072;-67
2020/12/07 14:44:13;;;;;;;98.50;42.33;;;3.90;99.90;;;;;;5032835;28;20053;-68
2020/12/07 14:46:40;;;;;;;74.80;34.53;;;3.90;99.90;;;;;;5032671;28;20113;-68
2020/12/07 14:52:29;;;;;;;58.25;28.80;;;3.90;99.90;;;;;;5032577;28;20164;-67